sensor_id;sensor_type;location;lat;lon;timestamp;pressure;altitude;pressure_sealevel;temperature;humidity
20860;BME280;10590;48.154;11.514;2023-07-09T00:00:13;96111.16;;;19.14;65.72
20860;BME280;10590;48.154;11.514;2023-07-09T00:05:37;96110.78;;;18.96;66.86
20860;BME280;10590;48.154;11.514;2023-07-09T00:10:59;96105.72;;;19.33;65.33
20860;BME280;10590;48.154;11.514;2023-07-09T00:16:24;96111.00;;;19.49;65.00
20860;BME280;10590;48.154;11.514;2023-07-09T00:21:48;96123.63;;;19.41;65.48
20860;BME280;10590;48.154;11.514;2023-07-09T00:27:14;96113.97;;;19.40;65.88
20860;BME280;10590;48.154;11.514;2023-07-09T00:32:38;96123.16;;;19.36;65.71
20860;BME280;10590;48.154;11.514;2023-07-09T00:38:10;96120.69;;;19.27;66.30
20860;BME280;10590;48.154;11.514;2023-07-09T00:43:35;96124.31;;;19.16;66.07
20860;BME280;10590;48.154;11.514;2023-07-09T00:49:00;96129.66;;;19.12;66.74
20860;BME280;10590;48.154;11.514;2023-07-09T00:54:29;96131.94;;;18.91;67.84
20860;BME280;10590;48.154;11.514;2023-07-09T00:59:55;96135.06;;;18.73;68.82
20860;BME280;10590;48.154;11.514;2023-07-09T01:05:19;96134.22;;;19.08;67.82
20860;BME280;10590;48.154;11.514;2023-07-09T01:10:43;96133.22;;;18.97;68.00
20860;BME280;10590;48.154;11.514;2023-07-09T01:16:05;96135.06;;;18.93;68.46
20860;BME280;10590;48.154;11.514;2023-07-09T01:21:28;96145.47;;;18.56;69.67
20860;BME280;10590;48.154;11.514;2023-07-09T01:26:50;96152.63;;;18.64;69.82
20860;BME280;10590;48.154;11.514;2023-07-09T01:32:13;96151.50;;;18.84;69.12
20860;BME280;10590;48.154;11.514;2023-07-09T01:37:37;96154.63;;;18.86;69.31
20860;BME280;10590;48.154;11.514;2023-07-09T01:43:00;96142.44;;;18.76;69.46
20860;BME280;10590;48.154;11.514;2023-07-09T01:48:23;96148.78;;;18.65;69.79
20860;BME280;10590;48.154;11.514;2023-07-09T01:53:47;96142.72;;;18.71;69.92
20860;BME280;10590;48.154;11.514;2023-07-09T01:59:09;96157.25;;;18.63;70.15
20860;BME280;10590;48.154;11.514;2023-07-09T02:04:31;96144.94;;;18.66;69.90
20860;BME280;10590;48.154;11.514;2023-07-09T02:09:55;96163.66;;;18.74;70.24
20860;BME280;10590;48.154;11.514;2023-07-09T02:15:17;96145.78;;;18.70;70.09
20860;BME280;10590;48.154;11.514;2023-07-09T02:20:39;96160.44;;;18.69;70.66
20860;BME280;10590;48.154;11.514;2023-07-09T02:26:02;96148.72;;;18.81;70.10
20860;BME280;10590;48.154;11.514;2023-07-09T02:31:25;96150.50;;;18.92;69.66
20860;BME280;10590;48.154;11.514;2023-07-09T02:36:50;96149.88;;;18.13;73.03
20860;BME280;10590;48.154;11.514;2023-07-09T02:42:16;96153.47;;;18.68;70.71
20860;BME280;10590;48.154;11.514;2023-07-09T02:47:40;96154.56;;;18.83;69.70
20860;BME280;10590;48.154;11.514;2023-07-09T02:53:02;96162.38;;;18.68;71.11
20860;BME280;10590;48.154;11.514;2023-07-09T02:58:25;96154.47;;;18.79;70.45
20860;BME280;10590;48.154;11.514;2023-07-09T03:03:47;96155.25;;;18.80;70.07
20860;BME280;10590;48.154;11.514;2023-07-09T03:09:09;96167.63;;;18.61;70.73
20860;BME280;10590;48.154;11.514;2023-07-09T03:14:32;96169.00;;;18.71;70.34
20860;BME280;10590;48.154;11.514;2023-07-09T03:19:54;96170.13;;;18.70;70.23
20860;BME280;10590;48.154;11.514;2023-07-09T03:25:16;96178.22;;;18.70;70.34
20860;BME280;10590;48.154;11.514;2023-07-09T03:30:41;96179.00;;;18.70;70.46
20860;BME280;10590;48.154;11.514;2023-07-09T03:36:03;96182.59;;;18.59;70.64
20860;BME280;10590;48.154;11.514;2023-07-09T03:41:26;96186.44;;;18.58;71.00
20860;BME280;10590;48.154;11.514;2023-07-09T03:46:49;96174.31;;;18.67;70.53
20860;BME280;10590;48.154;11.514;2023-07-09T03:52:11;96193.03;;;18.76;70.92
20860;BME280;10590;48.154;11.514;2023-07-09T03:57:34;96192.69;;;18.77;70.03
20860;BME280;10590;48.154;11.514;2023-07-09T04:02:57;96196.03;;;18.71;70.74
20860;BME280;10590;48.154;11.514;2023-07-09T04:08:19;96198.31;;;18.37;72.46
20860;BME280;10590;48.154;11.514;2023-07-09T04:13:41;96199.81;;;18.35;72.82
20860;BME280;10590;48.154;11.514;2023-07-09T04:19:04;96196.19;;;18.97;70.70
20860;BME280;10590;48.154;11.514;2023-07-09T04:24:26;96189.97;;;19.13;69.84
20860;BME280;10590;48.154;11.514;2023-07-09T04:29:49;96205.47;;;19.35;68.34
20860;BME280;10590;48.154;11.514;2023-07-09T04:35:14;96208.25;;;19.38;68.33
20860;BME280;10590;48.154;11.514;2023-07-09T04:40:36;96212.31;;;19.67;66.68
20860;BME280;10590;48.154;11.514;2023-07-09T04:45:58;96215.16;;;19.75;66.63
20860;BME280;10590;48.154;11.514;2023-07-09T04:51:21;96218.00;;;19.43;68.59
20860;BME280;10590;48.154;11.514;2023-07-09T04:56:43;96217.56;;;19.80;67.73
20860;BME280;10590;48.154;11.514;2023-07-09T05:02:06;96217.72;;;20.32;64.87
20860;BME280;10590;48.154;11.514;2023-07-09T05:07:29;96214.53;;;20.50;63.62
20860;BME280;10590;48.154;11.514;2023-07-09T05:12:54;96210.19;;;20.72;63.10
20860;BME280;10590;48.154;11.514;2023-07-09T05:18:17;96220.00;;;21.06;62.66
20860;BME280;10590;48.154;11.514;2023-07-09T05:23:40;96213.09;;;21.42;61.28
20860;BME280;10590;48.154;11.514;2023-07-09T05:29:03;96222.00;;;21.73;58.98
20860;BME280;10590;48.154;11.514;2023-07-09T05:34:26;96217.06;;;21.85;57.84
20860;BME280;10590;48.154;11.514;2023-07-09T05:39:50;96233.44;;;22.30;57.06
20860;BME280;10590;48.154;11.514;2023-07-09T05:45:12;96234.25;;;22.37;56.39
20860;BME280;10590;48.154;11.514;2023-07-09T05:50:34;96233.75;;;22.69;55.29
20860;BME280;10590;48.154;11.514;2023-07-09T05:55:58;96249.56;;;23.07;54.57
20860;BME280;10590;48.154;11.514;2023-07-09T06:01:20;96244.03;;;23.62;52.94
20860;BME280;10590;48.154;11.514;2023-07-09T06:06:42;96242.13;;;23.70;52.78
20860;BME280;10590;48.154;11.514;2023-07-09T06:12:07;96248.81;;;24.15;51.94
20860;BME280;10590;48.154;11.514;2023-07-09T06:17:29;96250.84;;;24.57;50.69
20860;BME280;10590;48.154;11.514;2023-07-09T06:22:51;96254.63;;;25.49;48.25
20860;BME280;10590;48.154;11.514;2023-07-09T06:28:15;96253.41;;;26.37;44.94
20860;BME280;10590;48.154;11.514;2023-07-09T06:33:37;96251.78;;;26.47;45.47
20860;BME280;10590;48.154;11.514;2023-07-09T06:38:59;96258.75;;;27.41;43.31
20860;BME280;10590;48.154;11.514;2023-07-09T06:44:22;96250.78;;;26.71;44.23
20860;BME280;10590;48.154;11.514;2023-07-09T06:49:46;96244.38;;;26.92;43.61
20860;BME280;10590;48.154;11.514;2023-07-09T06:55:08;96245.28;;;26.75;44.02
20860;BME280;10590;48.154;11.514;2023-07-09T07:00:34;96243.81;;;27.11;43.69
20860;BME280;10590;48.154;11.514;2023-07-09T07:05:56;96248.28;;;26.87;44.06
20860;BME280;10590;48.154;11.514;2023-07-09T07:11:18;96245.38;;;27.12;44.01
20860;BME280;10590;48.154;11.514;2023-07-09T07:16:43;96237.81;;;26.34;45.38
20860;BME280;10590;48.154;11.514;2023-07-09T07:22:05;96246.88;;;27.51;41.53
20860;BME280;10590;48.154;11.514;2023-07-09T07:27:27;96245.13;;;27.34;41.66
20860;BME280;10590;48.154;11.514;2023-07-09T07:32:51;96239.16;;;28.07;41.00
20860;BME280;10590;48.154;11.514;2023-07-09T07:38:12;96240.28;;;29.10;37.31
20860;BME280;10590;48.154;11.514;2023-07-09T07:43:34;96239.63;;;29.65;36.51
20860;BME280;10590;48.154;11.514;2023-07-09T07:48:58;96227.91;;;31.15;34.20
20860;BME280;10590;48.154;11.514;2023-07-09T07:54:20;96229.16;;;29.37;37.57
20860;BME280;10590;48.154;11.514;2023-07-09T07:59:42;96230.00;;;29.34;36.00
20860;BME280;10590;48.154;11.514;2023-07-09T08:05:06;96240.47;;;28.99;37.25
20860;BME280;10590;48.154;11.514;2023-07-09T08:10:28;96223.47;;;30.39;33.92
20860;BME280;10590;48.154;11.514;2023-07-09T08:15:50;96222.50;;;30.95;33.81
20860;BME280;10590;48.154;11.514;2023-07-09T08:21:13;96224.88;;;30.64;32.90
20860;BME280;10590;48.154;11.514;2023-07-09T08:26:35;96222.94;;;31.80;30.87
20860;BME280;10590;48.154;11.514;2023-07-09T08:31:58;96219.44;;;34.84;26.29
20860;BME280;10590;48.154;11.514;2023-07-09T08:37:21;96219.06;;;37.23;24.06
20860;BME280;10590;48.154;11.514;2023-07-09T08:42:45;96216.84;;;35.44;25.40
20860;BME280;10590;48.154;11.514;2023-07-09T08:48:13;96212.19;;;35.78;25.73
20860;BME280;10590;48.154;11.514;2023-07-09T08:53:42;96215.97;;;37.21;23.87
20860;BME280;10590;48.154;11.514;2023-07-09T08:59:08;96216.94;;;33.96;25.12
20860;BME280;10590;48.154;11.514;2023-07-09T09:04:36;96207.59;;;35.38;23.62
20860;BME280;10590;48.154;11.514;2023-07-09T09:10:03;96206.47;;;36.89;22.68
20860;BME280;10590;48.154;11.514;2023-07-09T09:15:25;96216.56;;;37.25;21.53
20860;BME280;10590;48.154;11.514;2023-07-09T09:20:53;96215.75;;;36.62;21.40
20860;BME280;10590;48.154;11.514;2023-07-09T09:26:22;96216.84;;;37.66;19.96
20860;BME280;10590;48.154;11.514;2023-07-09T09:31:49;96210.47;;;37.51;19.92
20860;BME280;10590;48.154;11.514;2023-07-09T09:37:12;96203.88;;;39.12;19.59
20860;BME280;10590;48.154;11.514;2023-07-09T09:42:35;96209.59;;;37.06;21.24
20860;BME280;10590;48.154;11.514;2023-07-09T09:47:59;96203.28;;;37.59;20.41
20860;BME280;10590;48.154;11.514;2023-07-09T09:53:23;96200.34;;;38.97;18.77
20860;BME280;10590;48.154;11.514;2023-07-09T09:58:52;96202.34;;;37.91;20.37
20860;BME280;10590;48.154;11.514;2023-07-09T10:04:18;96193.09;;;37.56;20.96
20860;BME280;10590;48.154;11.514;2023-07-09T10:09:46;96196.41;;;37.69;20.44
20860;BME280;10590;48.154;11.514;2023-07-09T10:15:20;96197.56;;;35.59;22.49
20860;BME280;10590;48.154;11.514;2023-07-09T10:20:51;96194.78;;;37.00;21.17
20860;BME280;10590;48.154;11.514;2023-07-09T10:26:22;96195.75;;;38.39;20.69
20860;BME280;10590;48.154;11.514;2023-07-09T10:31:52;96200.00;;;37.07;20.86
20860;BME280;10590;48.154;11.514;2023-07-09T10:37:30;96191.22;;;37.23;20.22
20860;BME280;10590;48.154;11.514;2023-07-09T10:42:59;96198.00;;;37.22;20.17
20860;BME280;10590;48.154;11.514;2023-07-09T10:48:34;96187.25;;;37.54;18.70
20860;BME280;10590;48.154;11.514;2023-07-09T10:54:00;96198.84;;;37.14;19.79
20860;BME280;10590;48.154;11.514;2023-07-09T10:59:27;96194.03;;;38.41;18.54
20860;BME280;10590;48.154;11.514;2023-07-09T11:04:54;96177.88;;;36.32;20.27
20860;BME280;10590;48.154;11.514;2023-07-09T11:10:21;96169.88;;;37.59;18.77
20860;BME280;10590;48.154;11.514;2023-07-09T11:15:47;96172.66;;;37.20;19.47
20860;BME280;10590;48.154;11.514;2023-07-09T11:21:17;96177.59;;;38.14;18.91
20860;BME280;10590;48.154;11.514;2023-07-09T11:26:47;96177.25;;;37.62;17.61
20860;BME280;10590;48.154;11.514;2023-07-09T11:32:17;96176.13;;;36.11;20.10
20860;BME280;10590;48.154;11.514;2023-07-09T11:37:47;96161.03;;;37.60;17.01
20860;BME280;10590;48.154;11.514;2023-07-09T11:43:28;96152.25;;;38.27;18.51
20860;BME280;10590;48.154;11.514;2023-07-09T11:48:51;96150.19;;;39.03;15.80
20860;BME280;10590;48.154;11.514;2023-07-09T11:54:15;96143.66;;;40.15;16.44
20860;BME280;10590;48.154;11.514;2023-07-09T11:59:38;96140.16;;;39.37;15.91
20860;BME280;10590;48.154;11.514;2023-07-09T12:05:02;96132.63;;;38.76;17.81
20860;BME280;10590;48.154;11.514;2023-07-09T12:10:28;96120.66;;;39.42;16.69
20860;BME280;10590;48.154;11.514;2023-07-09T12:15:54;96111.97;;;38.48;18.25
20860;BME280;10590;48.154;11.514;2023-07-09T12:21:16;96109.03;;;36.27;19.81
20860;BME280;10590;48.154;11.514;2023-07-09T12:26:40;96110.88;;;32.34;24.87
20860;BME280;10590;48.154;11.514;2023-07-09T12:32:10;96099.66;;;32.50;24.29
20860;BME280;10590;48.154;11.514;2023-07-09T12:37:33;96101.84;;;37.21;19.70
20860;BME280;10590;48.154;11.514;2023-07-09T12:42:56;96108.53;;;38.18;18.41
20860;BME280;10590;48.154;11.514;2023-07-09T12:48:21;96096.47;;;35.05;21.73
20860;BME280;10590;48.154;11.514;2023-07-09T12:53:44;96086.13;;;35.75;20.64
20860;BME280;10590;48.154;11.514;2023-07-09T12:59:16;96082.22;;;33.18;24.74
20860;BME280;10590;48.154;11.514;2023-07-09T13:04:38;96083.16;;;32.24;26.22
20860;BME280;10590;48.154;11.514;2023-07-09T13:10:06;96069.97;;;33.50;23.79
20860;BME280;10590;48.154;11.514;2023-07-09T13:15:38;96062.66;;;36.42;21.83
20860;BME280;10590;48.154;11.514;2023-07-09T13:21:01;96072.56;;;36.58;20.69
20860;BME280;10590;48.154;11.514;2023-07-09T13:26:35;96061.03;;;37.04;19.50
20860;BME280;10590;48.154;11.514;2023-07-09T13:31:58;96057.50;;;34.81;21.43
20860;BME280;10590;48.154;11.514;2023-07-09T13:37:20;96066.66;;;37.33;19.33
20860;BME280;10590;48.154;11.514;2023-07-09T13:42:43;96070.03;;;35.88;21.06
20860;BME280;10590;48.154;11.514;2023-07-09T13:48:13;96054.59;;;36.44;20.44
20860;BME280;10590;48.154;11.514;2023-07-09T13:53:36;96058.56;;;37.50;19.22
20860;BME280;10590;48.154;11.514;2023-07-09T13:58:58;96060.31;;;36.17;20.23
20860;BME280;10590;48.154;11.514;2023-07-09T14:04:22;96060.63;;;36.43;20.20
20860;BME280;10590;48.154;11.514;2023-07-09T14:09:44;96061.53;;;33.85;21.77
20860;BME280;10590;48.154;11.514;2023-07-09T14:15:12;96054.97;;;35.71;20.37
20860;BME280;10590;48.154;11.514;2023-07-09T14:20:36;96054.13;;;36.46;21.32
20860;BME280;10590;48.154;11.514;2023-07-09T14:25:58;96045.41;;;34.11;22.23
20860;BME280;10590;48.154;11.514;2023-07-09T14:31:22;96045.16;;;35.61;22.73
20860;BME280;10590;48.154;11.514;2023-07-09T14:36:47;96044.19;;;37.37;20.84
20860;BME280;10590;48.154;11.514;2023-07-09T14:42:11;96030.94;;;36.49;19.96
20860;BME280;10590;48.154;11.514;2023-07-09T14:47:34;96030.75;;;36.28;19.54
20860;BME280;10590;48.154;11.514;2023-07-09T14:52:57;96023.59;;;35.47;20.57
20860;BME280;10590;48.154;11.514;2023-07-09T14:58:20;96018.50;;;36.35;20.65
20860;BME280;10590;48.154;11.514;2023-07-09T15:03:43;96009.22;;;36.14;20.53
20860;BME280;10590;48.154;11.514;2023-07-09T15:09:07;96011.91;;;37.15;19.75
20860;BME280;10590;48.154;11.514;2023-07-09T15:14:29;96003.19;;;36.93;19.54
20860;BME280;10590;48.154;11.514;2023-07-09T15:19:51;96007.75;;;36.04;20.78
20860;BME280;10590;48.154;11.514;2023-07-09T15:25:16;96007.09;;;36.72;19.94
20860;BME280;10590;48.154;11.514;2023-07-09T15:30:39;95999.41;;;36.66;19.76
20860;BME280;10590;48.154;11.514;2023-07-09T15:36:00;95988.63;;;34.15;22.39
20860;BME280;10590;48.154;11.514;2023-07-09T15:41:24;95986.66;;;34.53;22.29
20860;BME280;10590;48.154;11.514;2023-07-09T15:46:50;95988.19;;;34.72;22.60
20860;BME280;10590;48.154;11.514;2023-07-09T15:52:14;95985.44;;;34.44;22.76
20860;BME280;10590;48.154;11.514;2023-07-09T15:57:37;95980.78;;;33.86;23.31
20860;BME280;10590;48.154;11.514;2023-07-09T16:03:00;95987.28;;;32.12;25.44
20860;BME280;10590;48.154;11.514;2023-07-09T16:08:23;95976.38;;;31.96;25.72
20860;BME280;10590;48.154;11.514;2023-07-09T16:13:46;95984.97;;;32.11;25.76
20860;BME280;10590;48.154;11.514;2023-07-09T16:19:09;95979.28;;;32.27;26.16
20860;BME280;10590;48.154;11.514;2023-07-09T16:24:33;95976.34;;;32.09;25.67
20860;BME280;10590;48.154;11.514;2023-07-09T16:29:57;95972.91;;;31.57;26.47
20860;BME280;10590;48.154;11.514;2023-07-09T16:35:21;95976.59;;;31.29;26.62
20860;BME280;10590;48.154;11.514;2023-07-09T16:40:43;95978.25;;;31.26;27.14
20860;BME280;10590;48.154;11.514;2023-07-09T16:46:14;95980.94;;;31.64;26.60
20860;BME280;10590;48.154;11.514;2023-07-09T16:51:37;95979.91;;;31.24;26.66
20860;BME280;10590;48.154;11.514;2023-07-09T16:56:59;95967.41;;;31.19;26.66
20860;BME280;10590;48.154;11.514;2023-07-09T17:02:26;95978.75;;;31.59;26.84
20860;BME280;10590;48.154;11.514;2023-07-09T17:07:48;95965.41;;;31.20;26.42
20860;BME280;10590;48.154;11.514;2023-07-09T17:13:18;95965.19;;;31.52;26.61
20860;BME280;10590;48.154;11.514;2023-07-09T17:18:42;95973.34;;;31.56;27.55
20860;BME280;10590;48.154;11.514;2023-07-09T17:24:18;95974.25;;;31.15;27.36
20860;BME280;10590;48.154;11.514;2023-07-09T17:29:41;95972.16;;;31.19;27.00
20860;BME280;10590;48.154;11.514;2023-07-09T17:35:05;95977.50;;;30.84;27.77
20860;BME280;10590;48.154;11.514;2023-07-09T17:40:29;95973.09;;;30.99;27.56
20860;BME280;10590;48.154;11.514;2023-07-09T17:45:52;95979.50;;;30.84;28.46
20860;BME280;10590;48.154;11.514;2023-07-09T17:51:15;95971.63;;;30.69;27.78
20860;BME280;10590;48.154;11.514;2023-07-09T17:56:37;95979.25;;;30.65;28.24
20860;BME280;10590;48.154;11.514;2023-07-09T18:02:08;95974.41;;;30.40;28.82
20860;BME280;10590;48.154;11.514;2023-07-09T18:07:33;95996.59;;;30.33;29.50
20860;BME280;10590;48.154;11.514;2023-07-09T18:13:00;95985.59;;;29.88;30.98
20860;BME280;10590;48.154;11.514;2023-07-09T18:18:26;95987.56;;;29.88;30.69
20860;BME280;10590;48.154;11.514;2023-07-09T18:23:51;95983.16;;;29.41;30.10
20860;BME280;10590;48.154;11.514;2023-07-09T18:29:24;95995.44;;;29.37;30.09
20860;BME280;10590;48.154;11.514;2023-07-09T18:34:47;96000.84;;;29.40;29.89
20860;BME280;10590;48.154;11.514;2023-07-09T18:40:12;95995.22;;;29.47;30.94
20860;BME280;10590;48.154;11.514;2023-07-09T18:45:33;95991.91;;;29.20;31.89
20860;BME280;10590;48.154;11.514;2023-07-09T18:50:57;95988.00;;;29.01;32.63
20860;BME280;10590;48.154;11.514;2023-07-09T18:56:20;95986.69;;;28.70;32.97
20860;BME280;10590;48.154;11.514;2023-07-09T19:01:43;95989.84;;;28.48;34.18
20860;BME280;10590;48.154;11.514;2023-07-09T19:07:09;95993.63;;;28.15;35.18
20860;BME280;10590;48.154;11.514;2023-07-09T19:12:33;95992.56;;;27.85;35.68
20860;BME280;10590;48.154;11.514;2023-07-09T19:17:55;95999.47;;;27.70;36.78
20860;BME280;10590;48.154;11.514;2023-07-09T19:23:17;96000.22;;;27.20;37.53
20860;BME280;10590;48.154;11.514;2023-07-09T19:28:40;95997.94;;;26.85;37.28
20860;BME280;10590;48.154;11.514;2023-07-09T19:34:02;96004.22;;;26.51;37.79
20860;BME280;10590;48.154;11.514;2023-07-09T19:39:28;96014.06;;;26.45;37.91
20860;BME280;10590;48.154;11.514;2023-07-09T19:44:52;96011.41;;;25.97;40.01
20860;BME280;10590;48.154;11.514;2023-07-09T19:50:20;96024.81;;;25.84;40.59
20860;BME280;10590;48.154;11.514;2023-07-09T19:55:42;96018.78;;;25.55;41.10
20860;BME280;10590;48.154;11.514;2023-07-09T20:01:10;96016.38;;;25.02;42.55
20860;BME280;10590;48.154;11.514;2023-07-09T20:06:33;96013.59;;;25.16;42.84
20860;BME280;10590;48.154;11.514;2023-07-09T20:11:55;96012.78;;;25.19;43.67
20860;BME280;10590;48.154;11.514;2023-07-09T20:17:19;96003.59;;;24.77;43.42
20860;BME280;10590;48.154;11.514;2023-07-09T20:22:41;96007.69;;;24.27;45.14
20860;BME280;10590;48.154;11.514;2023-07-09T20:28:08;96010.72;;;24.57;44.20
20860;BME280;10590;48.154;11.514;2023-07-09T20:33:37;96013.84;;;24.52;45.55
20860;BME280;10590;48.154;11.514;2023-07-09T20:39:00;96017.09;;;23.90;47.02
20860;BME280;10590;48.154;11.514;2023-07-09T20:44:24;96020.56;;;24.30;46.20
20860;BME280;10590;48.154;11.514;2023-07-09T20:49:48;96009.25;;;24.35;44.56
20860;BME280;10590;48.154;11.514;2023-07-09T20:55:12;96017.44;;;24.31;45.53
20860;BME280;10590;48.154;11.514;2023-07-09T21:00:34;96017.03;;;24.19;46.20
20860;BME280;10590;48.154;11.514;2023-07-09T21:05:58;96011.63;;;24.01;46.03
20860;BME280;10590;48.154;11.514;2023-07-09T21:11:20;96017.06;;;23.97;45.10
20860;BME280;10590;48.154;11.514;2023-07-09T21:16:43;96018.66;;;23.84;45.33
20860;BME280;10590;48.154;11.514;2023-07-09T21:22:11;96026.44;;;23.89;45.36
20860;BME280;10590;48.154;11.514;2023-07-09T21:27:33;96033.84;;;23.57;47.00
20860;BME280;10590;48.154;11.514;2023-07-09T21:32:55;96033.47;;;23.55;47.08
20860;BME280;10590;48.154;11.514;2023-07-09T21:38:20;96042.38;;;23.41;47.90
20860;BME280;10590;48.154;11.514;2023-07-09T21:43:42;96041.16;;;23.31;47.73
20860;BME280;10590;48.154;11.514;2023-07-09T21:49:04;96044.63;;;23.17;47.63
20860;BME280;10590;48.154;11.514;2023-07-09T21:54:30;96034.50;;;23.07;48.04
20860;BME280;10590;48.154;11.514;2023-07-09T21:59:53;96039.19;;;23.07;48.71
20860;BME280;10590;48.154;11.514;2023-07-09T22:05:19;96038.03;;;23.18;48.25
20860;BME280;10590;48.154;11.514;2023-07-09T22:10:43;96044.59;;;23.00;48.91
20860;BME280;10590;48.154;11.514;2023-07-09T22:16:08;96041.06;;;22.85;49.55
20860;BME280;10590;48.154;11.514;2023-07-09T22:21:30;96037.16;;;22.82;50.43
20860;BME280;10590;48.154;11.514;2023-07-09T22:26:55;96045.63;;;22.67;50.23
20860;BME280;10590;48.154;11.514;2023-07-09T22:32:20;96041.31;;;22.59;50.42
20860;BME280;10590;48.154;11.514;2023-07-09T22:37:46;96047.09;;;22.53;50.96
20860;BME280;10590;48.154;11.514;2023-07-09T22:43:10;96054.91;;;22.55;52.40
20860;BME280;10590;48.154;11.514;2023-07-09T22:48:32;96054.06;;;22.47;52.55
20860;BME280;10590;48.154;11.514;2023-07-09T22:53:54;96044.38;;;22.50;51.24
20860;BME280;10590;48.154;11.514;2023-07-09T23:04:39;96047.06;;;22.43;50.05
20860;BME280;10590;48.154;11.514;2023-07-09T23:10:02;96045.84;;;22.37;49.74
20860;BME280;10590;48.154;11.514;2023-07-09T23:15:30;96048.97;;;22.35;49.51
20860;BME280;10590;48.154;11.514;2023-07-09T23:20:52;96053.97;;;22.30;49.69
20860;BME280;10590;48.154;11.514;2023-07-09T23:26:14;96048.09;;;22.20;49.78
20860;BME280;10590;48.154;11.514;2023-07-09T23:31:38;96043.78;;;22.12;50.76
20860;BME280;10590;48.154;11.514;2023-07-09T23:37:00;96043.72;;;22.05;51.25
20860;BME280;10590;48.154;11.514;2023-07-09T23:42:22;96039.75;;;21.96;51.82
20860;BME280;10590;48.154;11.514;2023-07-09T23:47:48;96025.31;;;21.84;50.80
20860;BME280;10590;48.154;11.514;2023-07-09T23:53:16;96044.34;;;21.84;50.99
20860;BME280;10590;48.154;11.514;2023-07-09T23:58:40;96042.00;;;21.83;51.36
